createdAt,value
2023-04-27T00:01:59.850Z,4.50
2023-04-27T00:04:27.259Z,4.22
2023-04-27T00:06:54.485Z,4.30
2023-04-27T00:09:21.835Z,3.50
2023-04-27T00:11:48.797Z,4.80
2023-04-27T00:14:15.768Z,4.22
2023-04-27T00:16:42.944Z,4.72
2023-04-27T00:19:10.321Z,3.90
2023-04-27T00:21:37.298Z,3.90
2023-04-27T00:24:04.445Z,3.70
2023-04-27T00:26:31.487Z,3.72
2023-04-27T00:28:58.472Z,4.05
2023-04-27T00:31:25.676Z,3.70
2023-04-27T00:33:52.636Z,3.67
2023-04-27T00:36:19.662Z,4.25
2023-04-27T00:38:46.590Z,3.67
2023-04-27T00:41:13.565Z,4.30
2023-04-27T00:43:44.940Z,4.00
2023-04-27T00:46:17.028Z,4.20
2023-04-27T00:48:44.796Z,4.25
2023-04-27T00:51:11.825Z,4.25
2023-04-27T00:53:39.379Z,4.40
2023-04-27T00:56:07.607Z,4.68
2023-04-27T00:58:34.791Z,4.53
2023-04-27T01:01:01.890Z,4.40
2023-04-27T01:03:30.397Z,4.63
2023-04-27T01:05:59.813Z,4.30
2023-04-27T01:08:26.753Z,4.38
2023-04-27T01:10:53.762Z,4.35
2023-04-27T01:13:20.819Z,4.20
2023-04-27T01:15:47.798Z,4.47
2023-04-27T01:18:14.769Z,4.80
2023-04-27T01:20:42.452Z,4.45
2023-04-27T01:23:15.422Z,4.55
2023-04-27T01:25:43.860Z,4.68
2023-04-27T01:28:10.967Z,4.63
2023-04-27T01:30:37.847Z,5.15
2023-04-27T01:33:05.115Z,4.68
2023-04-27T01:35:32.234Z,4.40
2023-04-27T01:37:59.373Z,4.88
2023-04-27T01:40:26.362Z,4.88
2023-04-27T01:42:53.256Z,4.97
2023-04-27T01:45:20.412Z,4.53
2023-04-27T01:47:47.412Z,4.60
2023-04-27T01:50:14.413Z,5.25
2023-04-27T01:52:41.457Z,4.97
2023-04-27T01:55:08.972Z,5.07
2023-04-27T01:57:35.880Z,4.72
2023-04-27T02:00:03.994Z,4.60
2023-04-27T02:02:31.037Z,4.70
2023-04-27T02:04:58.123Z,4.72
2023-04-27T02:07:25.216Z,4.68
2023-04-27T02:09:52.113Z,4.65
2023-04-27T02:12:19.006Z,4.85
2023-04-27T02:14:46.107Z,4.82
2023-04-27T02:17:13.055Z,5.30
2023-04-27T02:19:39.960Z,5.05
2023-04-27T02:22:06.833Z,5.20
2023-04-27T02:24:35.940Z,4.82
2023-04-27T02:27:03.935Z,4.90
2023-04-27T02:29:31.805Z,4.95
2023-04-27T02:31:59.349Z,6.10
2023-04-27T02:34:26.343Z,8.57
2023-04-27T02:36:53.296Z,8.95
2023-04-27T02:39:20.258Z,8.90
2023-04-27T02:41:47.245Z,6.88
2023-04-27T02:44:14.173Z,6.53
2023-04-27T02:46:41.305Z,4.95
2023-04-27T02:49:08.246Z,5.60
2023-04-27T02:51:35.160Z,5.15
2023-04-27T02:54:02.197Z,5.40
2023-04-27T02:56:29.756Z,4.85
2023-04-27T02:58:57.051Z,4.90
2023-04-27T03:01:24.265Z,4.55
2023-04-27T03:03:51.415Z,4.93
2023-04-27T03:06:18.948Z,5.30
2023-04-27T03:08:46.587Z,4.80
2023-04-27T03:11:13.564Z,4.93
2023-04-27T03:13:43.431Z,4.70
2023-04-27T03:16:11.706Z,4.30
2023-04-27T03:18:39.482Z,4.53
2023-04-27T03:21:13.239Z,4.68
2023-04-27T03:23:40.328Z,4.53
2023-04-27T03:26:08.620Z,5.20
2023-04-27T03:28:36.158Z,5.03
2023-04-27T03:31:07.516Z,4.68
2023-04-27T03:33:34.965Z,5.00
2023-04-27T03:36:03.004Z,5.65
2023-04-27T03:38:30.692Z,4.82
2023-04-27T03:40:57.796Z,5.25
2023-04-27T03:43:25.818Z,4.90
2023-04-27T03:45:53.118Z,5.30
2023-04-27T03:48:20.922Z,5.43
2023-04-27T03:50:48.345Z,5.65
2023-04-27T03:53:15.412Z,5.05
2023-04-27T03:55:44.150Z,5.15
2023-04-27T03:58:11.543Z,5.45
2023-04-27T04:00:38.779Z,5.15
2023-04-27T04:03:06.989Z,5.25
2023-04-27T04:05:34.689Z,5.97
2023-04-27T04:08:01.619Z,5.35
2023-04-27T04:10:28.847Z,4.75
2023-04-27T04:12:55.810Z,5.72
2023-04-27T04:15:22.799Z,5.38
2023-04-27T04:17:49.814Z,5.57
2023-04-27T04:20:17.026Z,5.72
2023-04-27T04:22:44.447Z,5.30
2023-04-27T04:25:11.737Z,5.40
2023-04-27T04:27:39.085Z,5.22
2023-04-27T04:30:07.365Z,5.22
2023-04-27T04:32:38.123Z,5.80
2023-04-27T04:35:06.404Z,5.60
2023-04-27T04:37:36.702Z,6.20
2023-04-27T04:40:11.270Z,6.07
2023-04-27T04:42:38.469Z,6.00
2023-04-27T04:45:07.367Z,5.90
2023-04-27T04:47:34.661Z,5.50
2023-04-27T04:50:02.335Z,5.82
2023-04-27T04:52:29.476Z,5.47
2023-04-27T04:54:56.552Z,5.80
2023-04-27T04:57:23.500Z,6.13
2023-04-27T04:59:50.712Z,5.60
2023-04-27T05:02:17.758Z,5.95
2023-04-27T05:04:44.987Z,5.65
2023-04-27T05:07:14.716Z,5.72
2023-04-27T05:09:42.314Z,5.85
2023-04-27T05:12:09.874Z,5.20
2023-04-27T05:14:36.816Z,5.57
2023-04-27T05:17:03.763Z,5.93
2023-04-27T05:19:31.436Z,4.90
2023-04-27T05:21:59.112Z,5.18
2023-04-27T05:24:27.094Z,5.10
2023-04-27T05:26:55.030Z,5.50
2023-04-27T05:29:22.596Z,4.93
2023-04-27T05:31:49.701Z,5.20
2023-04-27T05:34:16.891Z,5.45
2023-04-27T05:36:44.018Z,6.03
2023-04-27T05:39:10.943Z,5.03
2023-04-27T05:41:37.894Z,5.07
2023-04-27T05:44:04.947Z,5.82
2023-04-27T05:46:31.996Z,5.20
2023-04-27T05:48:59.233Z,5.82
2023-04-27T05:51:26.354Z,5.00
2023-04-27T05:53:56.054Z,5.70
2023-04-27T05:56:23.140Z,4.80
2023-04-27T05:58:50.097Z,5.70
2023-04-27T06:01:17.110Z,5.35
2023-04-27T06:03:44.262Z,4.72
2023-04-27T06:06:11.417Z,5.70
2023-04-27T06:08:39.613Z,5.05
2023-04-27T06:11:07.010Z,5.57
2023-04-27T06:13:34.276Z,5.00
2023-04-27T06:16:02.127Z,6.15
2023-04-27T06:18:29.334Z,5.28
2023-04-27T06:21:01.733Z,5.50
2023-04-27T06:23:29.404Z,5.72
2023-04-27T06:25:56.462Z,5.47
2023-04-27T06:28:23.430Z,5.28
2023-04-27T06:30:50.549Z,5.10
2023-04-27T06:33:17.587Z,5.00
2023-04-27T06:35:47.462Z,4.50
2023-04-27T06:38:14.668Z,5.15
2023-04-27T06:40:41.678Z,5.63
2023-04-27T06:43:08.606Z,5.75
2023-04-27T06:45:36.243Z,5.60
2023-04-27T06:48:03.532Z,4.70
2023-04-27T06:50:31.003Z,4.07
2023-04-27T06:52:57.993Z,4.47
2023-04-27T06:55:25.005Z,5.22
2023-04-27T06:57:52.085Z,4.47
2023-04-27T07:00:20.053Z,4.75
2023-04-27T07:02:47.240Z,4.07
2023-04-27T07:05:14.391Z,4.18
2023-04-27T07:07:41.413Z,4.57
2023-04-27T07:10:09.358Z,4.60
2023-04-27T07:12:37.591Z,4.03
2023-04-27T07:15:06.664Z,3.67
2023-04-27T07:17:34.020Z,4.25
2023-04-27T07:20:06.296Z,4.40
2023-04-27T07:22:33.910Z,4.30
2023-04-27T07:25:01.116Z,4.55
2023-04-27T07:27:28.106Z,4.90
2023-04-27T07:29:55.069Z,5.30
2023-04-27T07:32:22.915Z,4.70
2023-04-27T07:34:54.020Z,4.65
2023-04-27T07:37:22.449Z,4.22
2023-04-27T07:39:52.250Z,4.03
2023-04-27T07:42:19.996Z,4.13
2023-04-27T07:44:47.526Z,4.15
2023-04-27T07:47:14.609Z,4.30
2023-04-27T07:49:41.574Z,3.90
2023-04-27T07:52:08.643Z,3.97
2023-04-27T07:54:35.558Z,8.13
2023-04-27T07:57:08.376Z,12.25
2023-04-27T07:59:35.276Z,8.35
2023-04-27T08:02:11.248Z,6.20
2023-04-27T08:04:45.430Z,3.90
2023-04-27T08:07:12.897Z,3.60
2023-04-27T08:09:40.026Z,3.78
2023-04-27T08:12:07.186Z,3.28
2023-04-27T08:14:35.757Z,3.35
2023-04-27T08:17:02.790Z,3.33
2023-04-27T08:19:29.777Z,2.85
2023-04-27T08:21:56.917Z,3.10
2023-04-27T08:24:23.908Z,2.80
2023-04-27T08:26:50.854Z,3.25
2023-04-27T08:29:27.108Z,2.88
2023-04-27T08:31:57.221Z,3.50
2023-04-27T08:34:24.441Z,3.45
2023-04-27T08:36:51.993Z,3.10
2023-04-27T08:39:19.245Z,2.60
2023-04-27T08:41:46.776Z,2.60
2023-04-27T08:44:13.697Z,2.55
2023-04-27T08:46:41.148Z,2.45
2023-04-27T08:49:08.380Z,2.15
2023-04-27T08:51:35.655Z,2.80
2023-04-27T08:54:03.087Z,2.75
2023-04-27T08:56:30.951Z,2.50
2023-04-27T08:58:59.152Z,2.67
2023-04-27T09:01:27.697Z,2.65
2023-04-27T09:04:00.254Z,2.50
2023-04-27T09:06:35.888Z,2.78
2023-04-27T09:09:04.197Z,2.95
2023-04-27T09:11:34.013Z,2.80
2023-04-27T09:14:03.327Z,2.88
2023-04-27T09:16:31.350Z,3.33
2023-04-27T09:18:59.364Z,3.53
2023-04-27T09:21:29.032Z,3.40
2023-04-27T09:23:56.897Z,3.60
2023-04-27T09:26:27.053Z,3.42
2023-04-27T09:28:58.829Z,2.72
2023-04-27T09:31:38.099Z,3.17
2023-04-27T09:34:05.405Z,2.80
2023-04-27T09:36:35.214Z,2.78
2023-04-27T09:39:05.540Z,3.03
2023-04-27T09:41:33.550Z,2.97
2023-04-27T09:44:01.957Z,2.80
2023-04-27T09:46:30.009Z,2.40
2023-04-27T09:48:57.761Z,2.50
2023-04-27T09:51:31.978Z,2.58
2023-04-27T09:54:03.244Z,2.40
2023-04-27T09:56:45.205Z,2.63
2023-04-27T09:59:41.317Z,2.53
2023-04-27T10:02:24.041Z,2.75
2023-04-27T10:05:12.337Z,2.63
2023-04-27T10:07:41.423Z,2.75
2023-04-27T10:10:18.675Z,2.40
2023-04-27T10:12:57.112Z,2.60
2023-04-27T10:15:28.905Z,2.47
2023-04-27T10:17:59.282Z,2.67
2023-04-27T10:20:34.246Z,2.63
2023-04-27T10:23:01.452Z,2.83
2023-04-27T10:25:43.029Z,2.70
2023-04-27T10:28:17.256Z,2.60
2023-04-27T10:30:49.357Z,2.60
2023-04-27T10:33:22.786Z,2.88
2023-04-27T10:35:57.768Z,2.50
2023-04-27T10:38:40.471Z,2.47
2023-04-27T10:41:14.846Z,2.35
2023-04-27T10:43:41.906Z,2.60
2023-04-27T10:46:17.447Z,2.80
2023-04-27T10:48:45.128Z,2.90
2023-04-27T10:51:16.752Z,3.10
2023-04-27T10:53:51.324Z,3.38
2023-04-27T10:56:19.139Z,3.15
2023-04-27T10:58:49.328Z,3.20
2023-04-27T11:01:27.259Z,3.50
2023-04-27T11:04:01.891Z,3.20
2023-04-27T11:06:33.397Z,3.05
2023-04-27T11:09:01.830Z,3.03
2023-04-27T11:11:28.988Z,3.10
2023-04-27T11:13:56.174Z,3.10
2023-04-27T11:16:23.656Z,2.97
2023-04-27T11:18:54.559Z,3.38
2023-04-27T11:21:23.762Z,3.30
2023-04-27T11:23:50.829Z,3.55
2023-04-27T11:26:20.076Z,3.88
2023-04-27T11:29:05.753Z,3.20
2023-04-27T11:31:49.793Z,3.50
2023-04-27T11:34:22.743Z,3.15
2023-04-27T11:37:17.897Z,3.17
2023-04-27T11:39:46.676Z,3.65
2023-04-27T11:42:28.697Z,3.35
2023-04-27T11:44:58.814Z,3.60
2023-04-27T11:47:32.026Z,3.40
2023-04-27T11:50:01.831Z,3.20
2023-04-27T11:52:35.971Z,3.40
2023-04-27T11:55:09.253Z,3.30
2023-04-27T11:57:36.856Z,2.78
2023-04-27T12:00:14.668Z,2.75
2023-04-27T12:02:43.261Z,2.92
2023-04-27T12:05:12.706Z,2.90
2023-04-27T12:07:43.672Z,2.50
2023-04-27T12:10:11.039Z,2.95
2023-04-27T12:12:38.423Z,3.17
2023-04-27T12:15:06.560Z,3.42
2023-04-27T12:17:33.592Z,3.30
2023-04-27T12:20:00.597Z,3.33
2023-04-27T12:22:27.828Z,3.20
2023-04-27T12:24:54.953Z,3.20
2023-04-27T12:27:22.330Z,2.90
2023-04-27T12:29:49.403Z,3.33
2023-04-27T12:32:16.611Z,3.28
2023-04-27T12:34:43.859Z,3.38
2023-04-27T12:37:11.263Z,3.30
2023-04-27T12:39:38.726Z,3.30
2023-04-27T12:42:05.716Z,3.22
2023-04-27T12:44:36.498Z,3.30
2023-04-27T12:47:04.439Z,3.33
2023-04-27T12:49:32.202Z,3.10
2023-04-27T12:51:59.721Z,3.15
2023-04-27T12:54:26.948Z,3.38
2023-04-27T12:56:53.919Z,3.40
2023-04-27T12:59:21.219Z,3.30
2023-04-27T13:01:48.519Z,3.00
2023-04-27T13:04:21.318Z,3.03
2023-04-27T13:06:49.421Z,3.08
2023-04-27T13:09:17.051Z,3.00
2023-04-27T13:11:46.802Z,3.58
2023-04-27T13:14:14.146Z,3.28
2023-04-27T13:16:45.519Z,3.22
2023-04-27T13:19:12.561Z,3.13
2023-04-27T13:21:39.754Z,3.10
2023-04-27T13:24:10.217Z,3.50
2023-04-27T13:26:37.383Z,3.78
2023-04-27T13:29:05.225Z,3.50
2023-04-27T13:31:36.726Z,3.78
2023-04-27T13:34:04.968Z,3.75
2023-04-27T13:36:32.002Z,3.85
2023-04-27T13:38:58.980Z,3.67
2023-04-27T13:41:28.401Z,3.38
2023-04-27T13:43:55.601Z,3.33
2023-04-27T13:46:22.707Z,3.35
2023-04-27T13:48:49.852Z,3.75
2023-04-27T13:51:16.907Z,3.70
2023-04-27T13:53:44.186Z,3.30
2023-04-27T13:56:11.244Z,3.78
2023-04-27T13:58:38.338Z,4.10
2023-04-27T14:01:11.526Z,3.97
2023-04-27T14:03:43.522Z,3.78
2023-04-27T14:06:14.388Z,3.90
2023-04-27T14:08:44.163Z,3.88
2023-04-27T14:11:14.522Z,4.15
2023-04-27T14:13:41.500Z,3.70
2023-04-27T14:16:11.867Z,3.65
2023-04-27T14:18:38.847Z,3.63
2023-04-27T14:21:06.119Z,3.60
2023-04-27T14:23:33.344Z,3.90
2023-04-27T14:26:00.369Z,3.92
2023-04-27T14:28:27.261Z,4.05
2023-04-27T14:30:54.220Z,3.53
2023-04-27T14:33:23.625Z,4.40
2023-04-27T14:35:50.554Z,4.30
2023-04-27T14:38:17.794Z,3.95
2023-04-27T14:40:44.824Z,3.90
2023-04-27T14:43:12.235Z,3.95
2023-04-27T14:45:50.178Z,3.90
2023-04-27T14:48:18.752Z,4.05
2023-04-27T14:50:45.846Z,4.03
2023-04-27T14:53:12.853Z,4.05
2023-04-27T14:55:41.333Z,4.00
2023-04-27T14:58:08.436Z,3.90
2023-04-27T15:00:35.881Z,4.10
2023-04-27T15:03:02.949Z,3.65
2023-04-27T15:05:30.075Z,4.53
2023-04-27T15:07:57.011Z,4.45
2023-04-27T15:10:24.443Z,3.60
2023-04-27T15:12:51.391Z,4.43
2023-04-27T15:15:18.471Z,4.22
2023-04-27T15:17:45.454Z,4.80
2023-04-27T15:20:14.432Z,4.43
2023-04-27T15:22:41.902Z,4.45
2023-04-27T15:25:09.385Z,4.18
2023-04-27T15:27:36.547Z,4.15
2023-04-27T15:30:04.344Z,4.32
2023-04-27T15:32:31.643Z,4.30
2023-04-27T15:34:59.026Z,4.28
2023-04-27T15:37:30.254Z,4.40
2023-04-27T15:39:57.292Z,4.90
2023-04-27T15:42:24.591Z,4.45
2023-04-27T15:44:52.046Z,4.43
2023-04-27T15:47:19.536Z,4.47
2023-04-27T15:49:56.774Z,5.03
2023-04-27T15:52:27.245Z,4.18
2023-04-27T15:54:54.969Z,4.70
2023-04-27T15:57:24.572Z,4.88
2023-04-27T15:59:51.803Z,5.00
2023-04-27T16:02:19.184Z,4.80
2023-04-27T16:04:46.410Z,5.05
2023-04-27T16:07:13.593Z,4.60
2023-04-27T16:09:40.678Z,4.45
2023-04-27T16:12:08.960Z,4.72
2023-04-27T16:14:36.115Z,4.22
2023-04-27T16:17:03.340Z,4.70
2023-04-27T16:19:30.443Z,4.70
2023-04-27T16:21:57.449Z,4.60
2023-04-27T16:24:28.156Z,5.53
2023-04-27T16:26:55.634Z,5.10
2023-04-27T16:29:22.758Z,4.70
2023-04-27T16:31:50.771Z,5.90
2023-04-27T16:34:17.827Z,4.97
2023-04-27T16:36:44.891Z,5.03
2023-04-27T16:39:15.149Z,5.05
2023-04-27T16:41:42.499Z,4.90
2023-04-27T16:44:09.625Z,5.43
2023-04-27T16:46:36.908Z,5.20
2023-04-27T16:49:04.395Z,5.55
2023-04-27T16:51:34.554Z,5.30
2023-04-27T16:54:01.745Z,5.13
2023-04-27T16:56:30.319Z,4.65
2023-04-27T16:59:04.538Z,5.25
2023-04-27T17:01:31.612Z,5.88
2023-04-27T17:04:02.896Z,6.88
2023-04-27T17:06:30.169Z,6.22
2023-04-27T17:08:58.229Z,6.03
2023-04-27T17:11:26.199Z,5.80
2023-04-27T17:13:53.268Z,6.00
2023-04-27T17:16:22.088Z,6.25
2023-04-27T17:18:49.510Z,5.57
2023-04-27T17:21:21.813Z,5.82
2023-04-27T17:23:50.858Z,5.45
2023-04-27T17:26:20.261Z,5.53
2023-04-27T17:28:48.416Z,5.40
2023-04-27T17:31:17.654Z,5.57
2023-04-27T17:33:47.854Z,6.18
2023-04-27T17:36:15.181Z,5.55
2023-04-27T17:38:42.307Z,5.82
2023-04-27T17:41:09.360Z,5.85
2023-04-27T17:43:37.792Z,6.40
2023-04-27T17:46:12.217Z,5.93
2023-04-27T17:48:39.227Z,6.03
2023-04-27T17:51:06.392Z,5.75
2023-04-27T17:53:33.442Z,5.63
2023-04-27T17:56:00.456Z,5.15
2023-04-27T17:58:28.117Z,5.78
2023-04-27T18:00:55.288Z,5.25
2023-04-27T18:03:22.546Z,5.25
2023-04-27T18:05:49.667Z,4.82
2023-04-27T18:08:16.725Z,5.35
2023-04-27T18:10:43.767Z,5.00
2023-04-27T18:13:10.788Z,4.88
2023-04-27T18:15:37.748Z,4.75
2023-04-27T18:18:04.832Z,4.32
2023-04-27T18:20:31.809Z,4.80
2023-04-27T18:22:58.714Z,4.82
2023-04-27T18:25:28.044Z,4.60
2023-04-27T18:27:56.000Z,4.57
2023-04-27T18:30:23.412Z,5.15
2023-04-27T18:32:50.630Z,5.03
2023-04-27T18:35:17.699Z,5.70
2023-04-27T18:37:48.574Z,5.57
2023-04-27T18:40:19.299Z,4.90
2023-04-27T18:42:46.638Z,5.18
2023-04-27T18:45:13.624Z,5.00
2023-04-27T18:47:40.700Z,4.40
2023-04-27T18:50:08.305Z,4.70
2023-04-27T18:52:38.294Z,4.68
2023-04-27T18:55:06.659Z,5.03
2023-04-27T18:57:33.730Z,5.25
2023-04-27T19:00:00.819Z,5.05
2023-04-27T19:02:27.931Z,5.07
2023-04-27T19:05:11.467Z,4.70
2023-04-27T19:07:39.745Z,4.93
2023-04-27T19:10:10.559Z,4.90
2023-04-27T19:12:37.801Z,5.10
2023-04-27T19:15:05.130Z,5.40
2023-04-27T19:17:32.264Z,6.35
2023-04-27T19:19:59.524Z,5.70
2023-04-27T19:22:28.064Z,6.40
2023-04-27T19:24:55.054Z,7.13
2023-04-27T19:27:22.168Z,7.30
2023-04-27T19:29:53.931Z,5.63
2023-04-27T19:32:21.612Z,5.95
2023-04-27T19:34:49.223Z,7.13
2023-04-27T19:37:16.340Z,5.78
2023-04-27T19:39:43.716Z,5.65
2023-04-27T19:42:10.713Z,5.13
2023-04-27T19:44:37.685Z,6.30
2023-04-27T19:47:04.671Z,5.00
2023-04-27T19:49:35.204Z,5.72
2023-04-27T19:52:03.252Z,5.30
2023-04-27T19:54:30.463Z,5.00
2023-04-27T19:56:57.465Z,5.25
2023-04-27T19:59:24.771Z,5.05
2023-04-27T20:01:57.430Z,4.93
2023-04-27T20:04:24.771Z,5.22
2023-04-27T20:06:52.267Z,5.47
2023-04-27T20:09:22.286Z,6.05
2023-04-27T20:11:52.705Z,4.65
2023-04-27T20:14:19.787Z,4.68
2023-04-27T20:16:47.142Z,4.80
2023-04-27T20:19:18.032Z,5.10
2023-04-27T20:21:48.058Z,4.95
2023-04-27T20:24:18.410Z,5.22
2023-04-27T20:26:46.616Z,6.00
2023-04-27T20:29:13.674Z,4.45
2023-04-27T20:31:41.337Z,4.78
2023-04-27T20:34:08.527Z,5.50
2023-04-27T20:36:40.994Z,4.85
2023-04-27T20:39:09.184Z,4.78
2023-04-27T20:41:38.618Z,4.80
2023-04-27T20:44:06.151Z,5.13
2023-04-27T20:46:33.382Z,4.93
2023-04-27T20:49:03.600Z,4.97
2023-04-27T20:51:31.107Z,4.72
2023-04-27T20:53:58.520Z,4.85
2023-04-27T20:56:26.308Z,5.25
2023-04-27T20:58:53.514Z,4.95
2023-04-27T21:01:20.815Z,5.57
2023-04-27T21:03:48.060Z,5.20
2023-04-27T21:06:15.624Z,5.03
2023-04-27T21:08:43.172Z,8.73
2023-04-27T21:11:14.158Z,16.85
2023-04-27T21:13:45.656Z,9.27
2023-04-27T21:16:29.311Z,8.27
2023-04-27T21:18:56.477Z,13.82
2023-04-27T21:21:26.709Z,8.57
2023-04-27T21:24:06.512Z,8.70
2023-04-27T21:26:34.646Z,10.68
2023-04-27T21:29:01.644Z,9.30
2023-04-27T21:31:28.645Z,7.88
2023-04-27T21:33:55.660Z,10.65
2023-04-27T21:36:22.743Z,10.02
2023-04-27T21:38:52.314Z,8.82
2023-04-27T21:41:19.250Z,9.43
2023-04-27T21:43:49.455Z,13.80
2023-04-27T21:46:16.471Z,13.82
2023-04-27T21:48:43.444Z,12.82
2023-04-27T21:51:10.566Z,9.27
2023-04-27T21:53:40.037Z,10.05
2023-04-27T21:56:07.416Z,8.50
2023-04-27T21:58:34.808Z,7.95
2023-04-27T22:01:04.587Z,12.75
2023-04-27T22:03:31.600Z,7.10
2023-04-27T22:05:59.496Z,7.40
2023-04-27T22:08:26.564Z,7.03
2023-04-27T22:10:53.561Z,8.18
2023-04-27T22:13:21.378Z,7.28
2023-04-27T22:15:48.667Z,6.47
2023-04-27T22:18:16.006Z,9.77
2023-04-27T22:20:46.375Z,13.65
2023-04-27T22:23:13.465Z,16.63
2023-04-27T22:25:42.942Z,12.13
2023-04-27T22:28:10.712Z,9.13
2023-04-27T22:30:38.472Z,8.73
2023-04-27T22:33:05.910Z,9.02
2023-04-27T22:35:33.739Z,8.55
2023-04-27T22:38:04.894Z,8.32
2023-04-27T22:40:31.828Z,8.00
2023-04-27T22:42:58.907Z,8.23
2023-04-27T22:45:25.908Z,13.75
2023-04-27T22:47:55.728Z,10.52
2023-04-27T22:50:22.847Z,8.38
2023-04-27T22:52:51.625Z,8.48
2023-04-27T22:55:19.142Z,9.02
2023-04-27T22:57:46.145Z,8.18
2023-04-27T23:00:13.472Z,8.93
2023-04-27T23:02:41.797Z,10.75
2023-04-27T23:05:11.030Z,14.45
2023-04-27T23:07:43.068Z,17.13
2023-04-27T23:10:10.620Z,8.38
2023-04-27T23:12:38.922Z,8.15
2023-04-27T23:15:06.532Z,8.55
2023-04-27T23:17:33.715Z,9.57
2023-04-27T23:20:02.266Z,9.07
2023-04-27T23:22:29.570Z,9.38
2023-04-27T23:24:56.897Z,8.55
2023-04-27T23:27:25.078Z,9.10
2023-04-27T23:29:52.957Z,8.40
2023-04-27T23:32:20.766Z,10.15
2023-04-27T23:34:48.168Z,8.98
2023-04-27T23:37:15.112Z,9.35
2023-04-27T23:39:42.084Z,8.65
2023-04-27T23:42:09.461Z,8.93
2023-04-27T23:44:36.466Z,9.23
2023-04-27T23:47:03.471Z,8.80
2023-04-27T23:49:30.406Z,9.65
2023-04-27T23:51:58.510Z,8.93
2023-04-27T23:54:26.244Z,10.15
2023-04-27T23:56:53.148Z,9.55
2023-04-27T23:59:20.054Z,10.10
